createdAt,value
2023-02-22T00:01:02.353Z,9.20
2023-02-22T00:02:11.461Z,9.23
2023-02-22T00:03:16.360Z,9.16
2023-02-22T00:04:21.570Z,9.15
2023-02-22T00:05:25.220Z,9.11
2023-02-22T00:06:31.358Z,9.05
2023-02-22T00:07:36.110Z,9.03
2023-02-22T00:08:39.435Z,9.02
2023-02-22T00:09:42.719Z,9.10
2023-02-22T00:10:46.398Z,9.10
2023-02-22T00:11:49.723Z,9.11
2023-02-22T00:12:55.743Z,9.15
2023-02-22T00:13:59.069Z,9.12
2023-02-22T00:15:02.396Z,9.10
2023-02-22T00:16:06.403Z,9.08
2023-02-22T00:17:10.065Z,9.05
2023-02-22T00:18:15.197Z,9.01
2023-02-22T00:19:18.349Z,8.92
2023-02-22T00:20:23.963Z,8.86
2023-02-22T00:21:27.220Z,8.82
2023-02-22T00:22:30.474Z,8.76
2023-02-22T00:23:33.545Z,8.70
2023-02-22T00:24:36.735Z,8.68
2023-02-22T00:25:39.862Z,8.71
2023-02-22T00:26:43.091Z,8.65
2023-02-22T00:27:51.981Z,8.62
2023-02-22T00:28:57.269Z,8.63
2023-02-22T00:30:00.705Z,8.58
2023-02-22T00:31:06.963Z,8.53
2023-02-22T00:32:10.036Z,8.62
2023-02-22T00:33:15.041Z,8.57
2023-02-22T00:34:18.222Z,8.51
2023-02-22T00:35:22.939Z,8.43
2023-02-22T00:36:25.995Z,8.35
2023-02-22T00:37:32.160Z,8.36
2023-02-22T00:38:36.073Z,8.39
2023-02-22T00:39:39.518Z,8.31
2023-02-22T00:40:43.038Z,8.27
2023-02-22T00:41:46.510Z,8.23
2023-02-22T00:42:50.499Z,8.16
2023-02-22T00:43:53.842Z,8.07
2023-02-22T00:44:56.996Z,8.08
2023-02-22T00:46:00.455Z,8.02
2023-02-22T00:47:05.062Z,8.00
2023-02-22T00:48:09.760Z,7.95
2023-02-22T00:49:13.055Z,7.93
2023-02-22T00:50:18.068Z,7.95
2023-02-22T00:51:21.461Z,7.88
2023-02-22T00:52:24.799Z,7.81
2023-02-22T00:53:28.140Z,7.68
2023-02-22T00:54:31.709Z,7.63
2023-02-22T00:55:36.593Z,7.72
2023-02-22T00:56:39.656Z,7.62
2023-02-22T00:57:43.165Z,7.60
2023-02-22T00:58:46.562Z,7.50
2023-02-22T00:59:49.803Z,7.40
2023-02-22T01:00:53.267Z,7.36
2023-02-22T01:01:56.548Z,7.56
2023-02-22T01:03:00.570Z,7.47
2023-02-22T01:04:04.179Z,7.33
2023-02-22T01:05:08.947Z,7.21
2023-02-22T01:06:12.326Z,7.20
2023-02-22T01:07:15.432Z,7.17
2023-02-22T01:08:21.058Z,7.03
2023-02-22T01:09:24.311Z,6.98
2023-02-22T01:10:31.128Z,6.95
2023-02-22T01:11:34.467Z,6.93
2023-02-22T01:12:38.521Z,7.11
2023-02-22T01:13:41.790Z,7.02
2023-02-22T01:14:44.874Z,6.93
2023-02-22T01:15:48.145Z,6.88
2023-02-22T01:16:51.620Z,6.95
2023-02-22T01:17:55.352Z,6.89
2023-02-22T01:18:58.393Z,6.84
2023-02-22T01:20:01.471Z,6.82
2023-02-22T01:21:05.753Z,6.83
2023-02-22T01:22:09.454Z,6.82
2023-02-22T01:23:17.615Z,6.83
2023-02-22T01:24:20.586Z,6.85
2023-02-22T01:25:26.704Z,6.95
2023-02-22T01:26:30.150Z,6.90
2023-02-22T01:27:33.992Z,6.83
2023-02-22T01:28:38.711Z,6.77
2023-02-22T01:29:41.781Z,6.74
2023-02-22T01:30:45.153Z,6.71
2023-02-22T01:31:54.856Z,6.97
2023-02-22T01:32:58.944Z,6.95
2023-02-22T01:34:02.070Z,6.94
2023-02-22T01:35:08.857Z,6.87
2023-02-22T01:36:12.102Z,6.74
2023-02-22T01:37:15.302Z,6.73
2023-02-22T01:38:20.466Z,6.68
2023-02-22T01:39:24.094Z,6.68
2023-02-22T01:40:34.033Z,6.91
2023-02-22T01:41:39.354Z,6.85
2023-02-22T01:42:43.029Z,6.88
2023-02-22T01:43:46.267Z,6.86
2023-02-22T01:45:28.139Z,6.82
2023-02-22T01:46:32.029Z,6.92
2023-02-22T01:47:35.086Z,7.16
2023-02-22T01:48:49.894Z,7.27
2023-02-22T01:49:53.617Z,7.37
2023-02-22T01:51:25.846Z,7.49
2023-02-22T01:52:29.011Z,7.47
2023-02-22T01:53:37.384Z,7.36
2023-02-22T01:54:46.816Z,7.38
2023-02-22T01:55:50.856Z,7.38
2023-02-22T01:57:08.314Z,7.46
2023-02-22T01:58:12.663Z,7.44
2023-02-22T01:59:15.990Z,7.63
2023-02-22T02:00:21.823Z,7.84
2023-02-22T02:01:26.626Z,7.89
2023-02-22T02:02:29.872Z,7.99
2023-02-22T02:03:36.968Z,7.98
2023-02-22T02:04:42.959Z,7.89
2023-02-22T02:05:46.623Z,7.85
2023-02-22T02:06:50.019Z,7.97
2023-02-22T02:07:53.779Z,8.09
2023-02-22T02:09:03.188Z,7.98
2023-02-22T02:10:14.798Z,7.98
2023-02-22T02:11:25.841Z,7.99
2023-02-22T02:12:33.476Z,7.88
2023-02-22T02:13:37.509Z,7.93
2023-02-22T02:14:42.673Z,7.96
2023-02-22T02:15:46.285Z,7.92
2023-02-22T02:16:52.378Z,7.91
2023-02-22T02:17:57.576Z,7.91
2023-02-22T02:19:01.735Z,7.93
2023-02-22T02:20:25.842Z,8.04
2023-02-22T02:21:50.144Z,8.20
2023-02-22T02:23:06.525Z,8.21
2023-02-22T02:24:28.772Z,8.32
2023-02-22T02:25:58.050Z,8.20
2023-02-22T02:27:23.316Z,8.28
2023-02-22T02:28:45.005Z,8.35
2023-02-22T02:29:53.495Z,8.35
2023-02-22T02:31:23.429Z,8.40
2023-02-22T02:32:45.218Z,8.43
2023-02-22T02:34:05.813Z,8.47
2023-02-22T02:35:40.053Z,8.54
2023-02-22T02:37:00.641Z,8.57
2023-02-22T02:38:21.491Z,8.55
2023-02-22T02:39:47.473Z,8.55
2023-02-22T02:41:09.239Z,8.64
2023-02-22T02:42:20.452Z,8.56
2023-02-22T02:43:44.616Z,8.54
2023-02-22T02:45:05.357Z,8.55
2023-02-22T02:46:32.523Z,8.66
2023-02-22T02:47:42.753Z,8.68
2023-02-22T02:48:51.704Z,8.71
2023-02-22T02:50:05.189Z,8.70
2023-02-22T02:51:11.782Z,8.66
2023-02-22T02:52:18.506Z,8.64
2023-02-22T02:53:26.462Z,8.64
2023-02-22T02:54:30.667Z,8.68
2023-02-22T02:55:37.138Z,8.60
2023-02-22T02:56:41.450Z,8.63
2023-02-22T02:57:45.285Z,8.53
2023-02-22T02:58:53.299Z,8.61
2023-02-22T02:59:56.367Z,8.65
2023-02-22T03:01:04.880Z,8.75
2023-02-22T03:02:42.036Z,8.70
2023-02-22T03:04:14.256Z,8.69
2023-02-22T03:05:39.483Z,8.66
2023-02-22T03:06:49.277Z,8.63
2023-02-22T03:08:11.205Z,8.57
2023-02-22T03:09:23.266Z,8.55
2023-02-22T03:10:56.939Z,8.56
2023-02-22T03:12:19.533Z,8.58
2023-02-22T03:13:45.462Z,8.51
2023-02-22T03:15:08.503Z,8.48
2023-02-22T03:16:23.576Z,8.50
2023-02-22T03:17:41.737Z,8.47
2023-02-22T03:18:55.278Z,8.41
2023-02-22T03:20:32.083Z,8.36
2023-02-22T03:21:51.909Z,8.33
2023-02-22T03:23:12.457Z,8.30
2023-02-22T03:24:24.229Z,8.27
2023-02-22T03:25:51.094Z,8.26
2023-02-22T03:26:58.008Z,8.24
2023-02-22T03:28:06.246Z,8.21
2023-02-22T03:29:13.749Z,8.20
2023-02-22T03:30:24.389Z,8.20
2023-02-22T03:31:33.439Z,8.22
2023-02-22T03:32:41.582Z,8.18
2023-02-22T03:33:51.069Z,8.15
2023-02-22T03:35:00.735Z,8.07
2023-02-22T03:36:14.813Z,8.03
2023-02-22T03:37:22.889Z,8.01
2023-02-22T03:38:30.681Z,7.94
2023-02-22T03:39:38.076Z,7.95
2023-02-22T03:40:46.228Z,7.93
2023-02-22T03:41:51.881Z,7.85
2023-02-22T03:43:02.433Z,7.81
2023-02-22T03:44:09.869Z,7.78
2023-02-22T03:45:16.064Z,7.73
2023-02-22T03:46:22.456Z,7.77
2023-02-22T03:47:36.035Z,7.74
2023-02-22T03:48:57.806Z,7.72
2023-02-22T03:50:17.686Z,7.70
2023-02-22T03:51:24.423Z,7.67
2023-02-22T03:52:27.891Z,7.90
2023-02-22T03:53:34.569Z,7.88
2023-02-22T03:54:38.036Z,7.85
2023-02-22T03:55:41.349Z,7.82
2023-02-22T03:56:52.657Z,7.80
2023-02-22T03:57:59.452Z,7.79
2023-02-22T03:59:08.688Z,7.76
2023-02-22T04:00:21.378Z,7.80
2023-02-22T04:01:24.455Z,7.80
2023-02-22T04:02:27.732Z,7.76
2023-02-22T04:03:30.833Z,7.74
2023-02-22T04:04:33.998Z,7.72
2023-02-22T04:05:37.241Z,7.71
2023-02-22T04:06:42.390Z,7.79
2023-02-22T04:07:45.491Z,7.78
2023-02-22T04:08:49.115Z,7.76
2023-02-22T04:09:52.348Z,7.73
2023-02-22T04:10:55.910Z,7.67
2023-02-22T04:11:59.031Z,7.68
2023-02-22T04:13:02.124Z,7.66
2023-02-22T04:14:05.506Z,7.63
2023-02-22T04:15:09.990Z,7.63
2023-02-22T04:16:13.225Z,7.62
2023-02-22T04:17:17.060Z,7.62
2023-02-22T04:18:22.966Z,7.61
2023-02-22T04:19:26.675Z,7.59
2023-02-22T04:20:30.339Z,7.58
2023-02-22T04:21:33.545Z,7.58
2023-02-22T04:22:36.993Z,7.57
2023-02-22T04:23:40.188Z,7.55
2023-02-22T04:24:43.212Z,7.56
2023-02-22T04:25:46.263Z,7.55
2023-02-22T04:26:50.270Z,7.63
2023-02-22T04:27:54.215Z,7.74
2023-02-22T04:28:57.504Z,7.68
2023-02-22T04:30:00.622Z,7.62
2023-02-22T04:31:04.099Z,7.61
2023-02-22T04:32:07.522Z,7.78
2023-02-22T04:33:11.207Z,7.76
2023-02-22T04:34:14.424Z,7.74
2023-02-22T04:35:17.633Z,7.70
2023-02-22T04:36:22.074Z,7.77
2023-02-22T04:37:25.227Z,7.70
2023-02-22T04:38:28.943Z,7.70
2023-02-22T04:39:32.252Z,7.79
2023-02-22T04:40:35.646Z,7.81
2023-02-22T04:41:39.218Z,7.72
2023-02-22T04:42:42.551Z,7.82
2023-02-22T04:43:45.818Z,7.83
2023-02-22T04:44:48.868Z,7.75
2023-02-22T04:45:52.074Z,7.77
2023-02-22T04:46:55.252Z,7.73
2023-02-22T04:47:58.437Z,7.68
2023-02-22T04:49:02.878Z,7.64
2023-02-22T04:50:08.206Z,7.64
2023-02-22T04:51:13.379Z,7.63
2023-02-22T04:52:16.969Z,7.64
2023-02-22T04:53:20.008Z,7.64
2023-02-22T04:54:23.113Z,7.65
2023-02-22T04:55:26.257Z,7.66
2023-02-22T04:56:29.427Z,7.67
2023-02-22T04:57:32.678Z,7.65
2023-02-22T04:58:38.286Z,7.63
2023-02-22T04:59:41.521Z,7.62
2023-02-22T05:00:44.665Z,7.62
2023-02-22T05:01:47.667Z,7.62
2023-02-22T05:02:51.348Z,7.63
2023-02-22T05:03:54.843Z,7.63
2023-02-22T05:04:57.956Z,7.61
2023-02-22T05:06:01.031Z,7.60
2023-02-22T05:07:04.853Z,7.57
2023-02-22T05:08:08.007Z,7.57
2023-02-22T05:09:11.191Z,7.58
2023-02-22T05:10:15.650Z,7.57
2023-02-22T05:11:22.315Z,7.55
2023-02-22T05:12:27.859Z,7.53
2023-02-22T05:13:31.514Z,7.53
2023-02-22T05:14:34.552Z,7.53
2023-02-22T05:15:37.679Z,7.50
2023-02-22T05:16:41.288Z,7.50
2023-02-22T05:17:45.545Z,7.48
2023-02-22T05:18:51.384Z,7.47
2023-02-22T05:19:54.530Z,7.47
2023-02-22T05:20:57.712Z,7.46
2023-02-22T05:22:01.275Z,7.44
2023-02-22T05:23:05.785Z,7.40
2023-02-22T05:24:08.811Z,7.41
2023-02-22T05:25:12.505Z,7.38
2023-02-22T05:26:17.457Z,7.37
2023-02-22T05:27:20.970Z,7.38
2023-02-22T05:28:24.391Z,7.44
2023-02-22T05:29:27.626Z,7.48
2023-02-22T05:30:34.077Z,7.45
2023-02-22T05:31:37.452Z,7.43
2023-02-22T05:32:40.464Z,7.39
2023-02-22T05:33:43.642Z,7.37
2023-02-22T05:34:46.763Z,7.36
2023-02-22T05:35:50.731Z,7.36
2023-02-22T05:36:53.994Z,7.37
2023-02-22T05:37:57.789Z,7.36
2023-02-22T05:39:01.734Z,7.40
2023-02-22T05:40:05.573Z,7.38
2023-02-22T05:41:12.067Z,7.40
2023-02-22T05:42:15.167Z,7.39
2023-02-22T05:43:18.372Z,7.37
2023-02-22T05:44:21.944Z,7.35
2023-02-22T05:45:27.550Z,7.36
2023-02-22T05:46:30.928Z,7.39
2023-02-22T05:47:34.324Z,7.41
2023-02-22T05:48:39.212Z,7.44
2023-02-22T05:49:42.692Z,7.42
2023-02-22T05:50:45.916Z,7.45
2023-02-22T05:51:48.968Z,7.50
2023-02-22T05:52:52.708Z,7.48
2023-02-22T05:53:55.757Z,7.43
2023-02-22T05:54:59.031Z,7.39
2023-02-22T05:56:02.071Z,7.38
2023-02-22T05:57:05.732Z,7.38
2023-02-22T05:58:08.972Z,7.37
2023-02-22T05:59:12.306Z,7.38
2023-02-22T06:00:24.916Z,7.37
2023-02-22T06:01:28.294Z,7.37
2023-02-22T06:02:31.411Z,7.41
2023-02-22T06:03:34.615Z,7.46
2023-02-22T06:04:37.744Z,7.46
2023-02-22T06:05:41.178Z,7.47
2023-02-22T06:06:44.303Z,7.48
2023-02-22T06:07:47.295Z,7.51
2023-02-22T06:08:50.946Z,7.52
2023-02-22T06:09:54.238Z,7.56
2023-02-22T06:10:57.526Z,7.58
2023-02-22T06:12:00.647Z,7.55
2023-02-22T06:13:05.613Z,7.60
2023-02-22T06:14:08.717Z,7.59
2023-02-22T06:15:11.848Z,7.58
2023-02-22T06:16:15.018Z,7.58
2023-02-22T06:17:20.545Z,7.58
2023-02-22T06:18:27.069Z,7.59
2023-02-22T06:19:30.081Z,7.60
2023-02-22T06:20:35.530Z,7.64
2023-02-22T06:21:38.864Z,7.63
2023-02-22T06:22:41.886Z,7.65
2023-02-22T06:23:45.184Z,7.66
2023-02-22T06:24:48.198Z,7.65
2023-02-22T06:25:51.262Z,7.70
2023-02-22T06:26:59.112Z,7.70
2023-02-22T06:28:02.774Z,7.70
2023-02-22T06:29:06.251Z,7.69
2023-02-22T06:30:13.341Z,7.70
2023-02-22T06:31:17.350Z,7.75
2023-02-22T06:32:20.569Z,7.75
2023-02-22T06:33:23.608Z,7.74
2023-02-22T06:34:26.700Z,7.73
2023-02-22T06:35:29.812Z,7.81
2023-02-22T06:36:32.916Z,7.81
2023-02-22T06:37:36.472Z,7.79
2023-02-22T06:38:39.660Z,7.83
2023-02-22T06:39:43.018Z,7.81
2023-02-22T06:40:46.240Z,7.80
2023-02-22T06:41:50.873Z,7.80
2023-02-22T06:42:54.466Z,7.78
2023-02-22T06:43:57.494Z,7.79
2023-02-22T06:45:00.572Z,7.83
2023-02-22T06:46:03.650Z,7.83
2023-02-22T06:47:06.747Z,7.82
2023-02-22T06:48:09.959Z,7.84
2023-02-22T06:49:14.081Z,7.87
2023-02-22T06:50:32.307Z,7.92
2023-02-22T06:51:37.956Z,7.93
2023-02-22T06:52:44.189Z,8.01
2023-02-22T06:53:47.162Z,8.04
2023-02-22T06:54:51.165Z,8.05
2023-02-22T06:55:55.488Z,8.03
2023-02-22T06:56:58.973Z,8.06
2023-02-22T06:58:03.839Z,8.04
2023-02-22T06:59:08.707Z,8.06
2023-02-22T07:00:12.356Z,8.12
2023-02-22T07:01:16.358Z,8.21
2023-02-22T07:02:20.049Z,8.24
2023-02-22T07:03:23.108Z,8.20
2023-02-22T07:04:26.303Z,8.18
2023-02-22T07:05:29.578Z,8.19
2023-02-22T07:06:32.669Z,8.21
2023-02-22T07:07:35.898Z,8.27
2023-02-22T07:08:39.016Z,8.29
2023-02-22T07:09:43.404Z,8.30
2023-02-22T07:10:50.692Z,8.30
2023-02-22T07:11:53.813Z,8.31
2023-02-22T07:12:56.947Z,8.33
2023-02-22T07:13:59.907Z,8.34
2023-02-22T07:15:03.021Z,8.37
2023-02-22T07:16:06.406Z,8.41
2023-02-22T07:17:09.613Z,8.44
2023-02-22T07:18:14.274Z,8.46
2023-02-22T07:19:17.339Z,8.50
2023-02-22T07:20:21.793Z,8.53
2023-02-22T07:21:25.049Z,8.55
2023-02-22T07:22:28.383Z,8.57
2023-02-22T07:23:31.512Z,8.59
2023-02-22T07:24:35.492Z,8.61
2023-02-22T07:25:38.596Z,8.63
2023-02-22T07:26:42.788Z,8.68
2023-02-22T07:27:46.594Z,8.70
2023-02-22T07:28:50.192Z,8.77
2023-02-22T07:29:53.479Z,8.86
2023-02-22T07:30:56.827Z,8.92
2023-02-22T07:32:00.262Z,8.99
2023-02-22T07:33:06.523Z,9.03
2023-02-22T07:34:09.714Z,9.09
2023-02-22T07:35:22.804Z,9.13
2023-02-22T07:36:26.048Z,9.15
2023-02-22T07:37:30.018Z,9.16
2023-02-22T07:38:33.047Z,9.18
2023-02-22T07:39:38.203Z,9.21
2023-02-22T07:40:42.003Z,9.23
2023-02-22T07:41:45.066Z,9.28
2023-02-22T07:43:24.388Z,9.29
2023-02-22T07:44:27.361Z,9.28
2023-02-22T07:45:34.985Z,9.30
2023-02-22T07:46:38.218Z,9.33
2023-02-22T07:47:41.669Z,9.37
2023-02-22T07:48:45.400Z,9.40
2023-02-22T07:49:48.692Z,9.39
2023-02-22T07:50:51.993Z,9.41
2023-02-22T07:51:55.335Z,9.45
2023-02-22T07:53:02.964Z,9.47
2023-02-22T07:54:06.209Z,9.50
2023-02-22T07:55:09.199Z,9.50
2023-02-22T07:56:12.471Z,9.53
2023-02-22T07:57:16.167Z,9.62
2023-02-22T07:58:22.268Z,9.64
2023-02-22T07:59:25.479Z,9.64
2023-02-22T08:00:34.716Z,9.69
2023-02-22T08:01:37.713Z,9.75
2023-02-22T08:02:44.493Z,9.77
2023-02-22T08:03:47.968Z,9.79
2023-02-22T08:04:51.247Z,9.84
2023-02-22T08:05:58.008Z,9.88
2023-02-22T08:07:01.338Z,9.92
2023-02-22T08:08:06.422Z,9.96
2023-02-22T08:09:09.680Z,9.97
2023-02-22T08:10:15.675Z,9.96
2023-02-22T08:11:19.199Z,9.96
2023-02-22T08:12:22.564Z,9.98
2023-02-22T08:13:25.900Z,9.99
2023-02-22T08:14:28.991Z,10.02
2023-02-22T08:15:40.560Z,10.11
2023-02-22T08:16:43.543Z,10.18
2023-02-22T08:17:47.138Z,10.26
2023-02-22T08:18:50.442Z,10.32
2023-02-22T08:19:53.598Z,10.45
2023-02-22T08:20:57.888Z,10.56
2023-02-22T08:22:01.166Z,10.65
2023-02-22T08:23:05.293Z,10.69
2023-02-22T08:24:08.642Z,10.75
2023-02-22T08:25:12.996Z,10.79
2023-02-22T08:26:18.791Z,10.83
2023-02-22T08:27:29.708Z,10.90
2023-02-22T08:28:32.875Z,11.01
2023-02-22T08:29:35.901Z,11.12
2023-02-22T08:30:40.655Z,11.14
2023-02-22T08:31:51.143Z,11.19
2023-02-22T08:32:54.743Z,11.21
2023-02-22T08:33:57.858Z,11.24
2023-02-22T08:35:01.591Z,11.39
2023-02-22T08:36:04.987Z,11.49
2023-02-22T08:37:08.061Z,11.54
2023-02-22T08:38:23.823Z,11.55
2023-02-22T08:39:26.840Z,11.46
2023-02-22T08:40:33.450Z,11.50
2023-02-22T08:41:36.684Z,11.50
2023-02-22T08:42:39.863Z,11.54
2023-02-22T08:43:43.031Z,11.54
2023-02-22T08:44:46.198Z,11.51
2023-02-22T08:45:49.786Z,11.50
2023-02-22T08:46:52.883Z,11.55
2023-02-22T08:47:55.960Z,11.58
2023-02-22T08:48:58.986Z,11.62
2023-02-22T08:50:02.086Z,11.66
2023-02-22T08:51:05.360Z,11.70
2023-02-22T08:52:11.899Z,11.73
2023-02-22T08:53:16.716Z,11.77
2023-02-22T08:54:19.774Z,11.82
2023-02-22T08:55:25.718Z,11.82
2023-02-22T08:56:30.148Z,11.85
2023-02-22T08:57:33.292Z,11.89
2023-02-22T08:58:37.031Z,11.91
2023-02-22T08:59:40.486Z,11.93
2023-02-22T09:00:45.026Z,11.98
2023-02-22T09:01:48.460Z,11.97
2023-02-22T09:02:55.117Z,12.02
2023-02-22T09:03:58.076Z,12.08
2023-02-22T09:05:01.269Z,12.13
2023-02-22T09:06:07.529Z,12.26
2023-02-22T09:07:11.701Z,12.32
2023-02-22T09:08:16.443Z,12.23
2023-02-22T09:09:21.706Z,12.24
2023-02-22T09:10:29.516Z,12.26
2023-02-22T09:11:32.834Z,12.26
2023-02-22T09:12:35.917Z,12.25
2023-02-22T09:13:39.108Z,12.27
2023-02-22T09:14:43.524Z,12.34
2023-02-22T09:15:46.808Z,12.35
2023-02-22T09:16:50.345Z,12.37
2023-02-22T09:17:54.454Z,12.39
2023-02-22T09:18:57.566Z,12.40
2023-02-22T09:20:00.766Z,12.43
2023-02-22T09:21:05.060Z,12.47
2023-02-22T09:22:08.200Z,12.53
2023-02-22T09:23:11.548Z,12.49
2023-02-22T09:24:14.652Z,12.45
2023-02-22T09:25:21.270Z,12.45
2023-02-22T09:26:24.436Z,12.46
2023-02-22T09:27:30.693Z,12.47
2023-02-22T09:28:33.817Z,12.42
2023-02-22T09:29:37.486Z,12.45
2023-02-22T09:30:43.800Z,12.42
2023-02-22T09:31:47.262Z,12.49
2023-02-22T09:32:55.582Z,12.59
2023-02-22T09:33:58.780Z,12.46
2023-02-22T09:35:01.890Z,12.31
2023-02-22T09:36:07.380Z,12.39
2023-02-22T09:37:10.461Z,12.36
2023-02-22T09:38:19.078Z,12.30
2023-02-22T09:39:22.297Z,12.22
2023-02-22T09:40:30.415Z,12.20
2023-02-22T09:41:47.989Z,12.20
2023-02-22T09:43:08.753Z,12.24
2023-02-22T09:44:36.354Z,12.29
2023-02-22T09:45:45.481Z,12.32
2023-02-22T09:46:50.147Z,12.36
2023-02-22T09:48:01.303Z,12.34
2023-02-22T09:49:21.287Z,12.32
2023-02-22T09:50:28.852Z,12.38
2023-02-22T09:51:49.607Z,12.35
2023-02-22T09:53:06.046Z,12.34
2023-02-22T09:54:44.227Z,12.32
2023-02-22T09:55:53.614Z,12.39
2023-02-22T09:57:00.833Z,12.30
2023-02-22T09:58:14.566Z,12.26
2023-02-22T09:59:24.865Z,12.30
2023-02-22T10:00:35.247Z,12.33
2023-02-22T10:01:46.059Z,12.33
2023-02-22T10:03:21.398Z,12.39
2023-02-22T10:04:37.000Z,12.39
2023-02-22T10:05:43.172Z,12.41
2023-02-22T10:07:06.343Z,12.43
2023-02-22T10:08:19.320Z,12.53
2023-02-22T10:09:28.264Z,12.61
2023-02-22T10:10:34.780Z,12.53
2023-02-22T10:11:53.346Z,12.54
2023-02-22T10:13:33.093Z,12.70
2023-02-22T10:14:48.586Z,12.70
2023-02-22T10:16:17.929Z,12.55
2023-02-22T10:17:50.469Z,12.52
2023-02-22T10:19:03.901Z,12.47
2023-02-22T10:20:18.724Z,12.48
2023-02-22T10:21:38.354Z,12.45
2023-02-22T10:22:45.954Z,12.37
2023-02-22T10:24:02.471Z,12.28
2023-02-22T10:25:22.416Z,12.25
2023-02-22T10:26:37.009Z,12.19
2023-02-22T10:27:49.148Z,12.08
2023-02-22T10:29:00.994Z,12.02
2023-02-22T10:30:25.343Z,12.07
2023-02-22T10:31:36.966Z,12.02
2023-02-22T10:32:46.806Z,11.99
2023-02-22T10:33:57.412Z,11.97
2023-02-22T10:35:05.777Z,11.94
2023-02-22T10:36:21.690Z,11.93
2023-02-22T10:37:34.707Z,11.97
2023-02-22T10:38:39.442Z,11.93
2023-02-22T10:39:44.956Z,11.87
2023-02-22T10:41:02.461Z,11.87
2023-02-22T10:42:09.537Z,11.92
2023-02-22T10:43:12.972Z,12.02
2023-02-22T10:44:16.395Z,12.00
2023-02-22T10:45:33.048Z,12.07
2023-02-22T10:46:37.029Z,11.88
2023-02-22T10:47:41.123Z,11.78
2023-02-22T10:48:47.893Z,11.76
2023-02-22T10:49:59.678Z,11.74
2023-02-22T10:51:05.526Z,11.77
2023-02-22T10:52:22.686Z,11.82
2023-02-22T10:53:28.055Z,11.84
2023-02-22T10:54:41.549Z,11.84
2023-02-22T10:56:15.940Z,11.93
2023-02-22T10:57:29.561Z,11.96
2023-02-22T10:58:46.402Z,11.92
2023-02-22T10:59:52.348Z,11.92
2023-02-22T11:00:55.674Z,12.07
2023-02-22T11:01:59.390Z,12.14
2023-02-22T11:03:17.008Z,12.12
2023-02-22T11:04:22.152Z,11.99
2023-02-22T11:05:38.193Z,11.98
2023-02-22T11:06:45.168Z,12.00
2023-02-22T11:07:48.657Z,11.98
2023-02-22T11:08:52.684Z,11.97
2023-02-22T11:10:02.089Z,11.94
2023-02-22T11:11:26.021Z,11.93
2023-02-22T11:12:39.953Z,11.97
2023-02-22T11:13:43.191Z,12.01
2023-02-22T11:14:46.398Z,12.10
2023-02-22T11:15:50.468Z,12.10
2023-02-22T11:16:57.224Z,12.12
2023-02-22T11:18:02.497Z,12.14
2023-02-22T11:19:33.133Z,12.17
2023-02-22T11:20:39.599Z,12.20
2023-02-22T11:21:43.220Z,12.23
2023-02-22T11:22:46.473Z,12.25
2023-02-22T11:23:50.878Z,12.24
2023-02-22T11:24:59.511Z,12.27
2023-02-22T11:26:21.029Z,12.26
2023-02-22T11:27:43.652Z,12.39
2023-02-22T11:28:56.322Z,12.37
2023-02-22T11:30:22.207Z,12.45
2023-02-22T11:31:29.369Z,12.45
2023-02-22T11:32:32.989Z,12.45
2023-02-22T11:33:37.730Z,12.45
2023-02-22T11:34:43.075Z,12.39
2023-02-22T11:35:58.492Z,12.36
2023-02-22T11:37:30.682Z,12.34
2023-02-22T11:38:37.508Z,12.31
2023-02-22T11:39:44.142Z,12.31
2023-02-22T11:41:04.666Z,12.34
2023-02-22T11:42:28.611Z,12.32
2023-02-22T11:43:32.044Z,12.33
2023-02-22T11:44:35.263Z,12.33
2023-02-22T11:45:49.868Z,12.28
2023-02-22T11:47:07.303Z,12.29
2023-02-22T11:48:21.173Z,12.28
2023-02-22T11:49:34.174Z,12.27
2023-02-22T11:50:52.155Z,12.31
2023-02-22T11:52:08.098Z,12.31
2023-02-22T11:53:39.204Z,12.31
2023-02-22T11:54:59.124Z,12.35
2023-02-22T11:56:37.189Z,12.34
2023-02-22T11:58:06.058Z,12.32
2023-02-22T11:59:44.760Z,12.41
2023-02-22T12:01:17.571Z,12.39
2023-02-22T12:02:31.841Z,12.36
2023-02-22T12:03:46.499Z,12.36
2023-02-22T12:05:08.374Z,12.40
2023-02-22T12:06:25.868Z,12.39
2023-02-22T12:07:48.767Z,12.38
2023-02-22T12:09:24.292Z,12.38
2023-02-22T12:10:55.553Z,12.39
2023-02-22T12:12:16.628Z,12.29
2023-02-22T12:13:37.761Z,12.21
2023-02-22T12:14:56.509Z,12.16
2023-02-22T12:16:13.247Z,12.12
2023-02-22T12:18:00.117Z,12.11
2023-02-22T12:19:25.421Z,12.11
2023-02-22T12:20:42.790Z,12.14
2023-02-22T12:21:53.346Z,12.16
2023-02-22T12:23:20.641Z,12.14
2023-02-22T12:24:31.020Z,12.22
2023-02-22T12:25:41.699Z,12.13
2023-02-22T12:27:09.929Z,12.10
2023-02-22T12:28:24.230Z,12.14
2023-02-22T12:29:37.799Z,12.11
2023-02-22T12:30:45.769Z,12.10
2023-02-22T12:31:55.176Z,12.08
2023-02-22T12:33:01.268Z,12.07
2023-02-22T12:34:30.520Z,12.01
2023-02-22T12:35:37.593Z,11.98
2023-02-22T12:36:47.275Z,11.94
2023-02-22T12:38:02.040Z,11.96
2023-02-22T12:39:23.688Z,11.97
2023-02-22T12:40:47.728Z,11.93
2023-02-22T12:41:54.984Z,11.93
2023-02-22T12:43:13.087Z,11.94
2023-02-22T12:44:25.514Z,11.93
2023-02-22T12:45:37.469Z,11.89
2023-02-22T12:47:00.756Z,11.85
2023-02-22T12:48:31.666Z,11.83
2023-02-22T12:50:17.506Z,11.85
2023-02-22T12:51:26.343Z,11.87
2023-02-22T12:53:01.867Z,11.88
2023-02-22T12:54:21.484Z,11.86
2023-02-22T12:55:29.180Z,11.82
2023-02-22T12:56:37.574Z,11.85
2023-02-22T12:58:07.087Z,11.84
2023-02-22T12:59:35.736Z,11.80
2023-02-22T13:01:05.895Z,11.80
2023-02-22T13:02:17.766Z,11.80
2023-02-22T13:03:36.032Z,11.76
2023-02-22T13:04:38.900Z,11.76
2023-02-22T13:05:42.451Z,11.72
2023-02-22T13:07:00.227Z,11.71
2023-02-22T13:08:27.077Z,11.70
2023-02-22T13:09:35.750Z,11.67
2023-02-22T13:11:02.094Z,11.66
2023-02-22T13:12:11.252Z,11.67
2023-02-22T13:13:14.096Z,11.69
2023-02-22T13:14:45.644Z,11.70
2023-02-22T13:16:05.758Z,11.69
2023-02-22T13:17:33.166Z,11.71
2023-02-22T13:19:26.259Z,11.82
2023-02-22T13:20:41.056Z,11.82
2023-02-22T13:22:09.537Z,11.78
2023-02-22T13:23:29.545Z,11.79
2023-02-22T13:24:57.598Z,11.77
2023-02-22T13:26:25.271Z,11.78
2023-02-22T13:27:54.673Z,11.82
2023-02-22T13:29:08.921Z,11.88
2023-02-22T13:30:39.246Z,11.82
2023-02-22T13:32:03.103Z,11.78
2023-02-22T13:33:22.111Z,11.77
2023-02-22T13:34:45.254Z,11.77
2023-02-22T13:35:53.966Z,11.82
2023-02-22T13:37:18.191Z,11.83
2023-02-22T13:38:30.036Z,11.82
2023-02-22T13:39:42.202Z,11.80
2023-02-22T13:41:12.435Z,11.81
2023-02-22T13:42:39.756Z,11.77
2023-02-22T13:44:02.643Z,11.78
2023-02-22T13:45:35.204Z,11.80
2023-02-22T13:46:50.866Z,11.83
2023-02-22T13:48:05.963Z,11.79
2023-02-22T13:49:26.973Z,11.81
2023-02-22T13:50:51.064Z,11.78
2023-02-22T13:51:56.927Z,11.76
2023-02-22T13:53:04.059Z,11.78
2023-02-22T13:54:16.509Z,11.77
2023-02-22T13:55:28.342Z,11.74
2023-02-22T13:56:31.224Z,11.78
2023-02-22T13:57:49.998Z,11.79
2023-02-22T13:59:00.470Z,11.78
2023-02-22T14:00:15.757Z,11.83
2023-02-22T14:01:41.552Z,11.82
2023-02-22T14:03:15.605Z,11.83
2023-02-22T14:04:27.743Z,11.81
2023-02-22T14:05:42.999Z,11.79
2023-02-22T14:06:46.127Z,11.86
2023-02-22T14:07:50.341Z,11.86
2023-02-22T14:08:53.306Z,11.81
2023-02-22T14:09:57.920Z,11.75
2023-02-22T14:11:07.678Z,11.74
2023-02-22T14:12:10.551Z,11.68
2023-02-22T14:13:18.485Z,11.68
2023-02-22T14:14:21.466Z,11.71
2023-02-22T14:15:30.251Z,11.66
2023-02-22T14:16:34.476Z,11.62
2023-02-22T14:17:39.727Z,11.61
2023-02-22T14:18:46.216Z,11.63
2023-02-22T14:20:30.261Z,11.60
2023-02-22T14:21:37.151Z,11.63
2023-02-22T14:22:40.066Z,11.64
2023-02-22T14:23:54.269Z,11.61
2023-02-22T14:24:58.473Z,11.64
2023-02-22T14:26:31.452Z,11.62
2023-02-22T14:27:41.666Z,11.62
2023-02-22T14:29:15.789Z,11.63
2023-02-22T14:30:31.100Z,11.63
2023-02-22T14:31:37.320Z,11.63
2023-02-22T14:32:40.733Z,11.60
2023-02-22T14:33:59.481Z,11.55
2023-02-22T14:35:25.586Z,11.51
2023-02-22T14:36:35.230Z,11.56
2023-02-22T14:37:41.550Z,11.54
2023-02-22T14:38:46.149Z,11.50
2023-02-22T14:40:13.219Z,11.50
2023-02-22T14:41:17.918Z,11.47
2023-02-22T14:42:40.731Z,11.44
2023-02-22T14:43:45.723Z,11.42
2023-02-22T14:44:48.969Z,11.40
2023-02-22T14:45:56.827Z,11.40
2023-02-22T14:47:05.211Z,11.40
2023-02-22T14:48:39.582Z,11.45
2023-02-22T14:49:46.805Z,11.44
2023-02-22T14:50:54.596Z,11.43
2023-02-22T14:52:04.146Z,11.39
2023-02-22T14:53:18.466Z,11.33
2023-02-22T14:54:21.124Z,11.29
2023-02-22T14:55:26.433Z,11.29
2023-02-22T14:56:41.301Z,11.27
2023-02-22T14:58:00.199Z,11.28
2023-02-22T14:59:08.303Z,11.29
2023-02-22T15:00:20.342Z,11.28
2023-02-22T15:01:31.227Z,11.29
2023-02-22T15:02:43.652Z,11.30
2023-02-22T15:03:49.706Z,11.30
2023-02-22T15:04:56.817Z,11.28
2023-02-22T15:06:15.069Z,11.27
2023-02-22T15:07:27.861Z,11.25
2023-02-22T15:08:32.313Z,11.25